sensor_id;sensor_type;location;lat;lon;timestamp;temperature;humidity
37289;DHT22;23174;49.462;11.000;2024-03-23T00:54:19;13.30;99.90
37289;DHT22;23174;49.462;11.000;2024-03-23T00:56:19;13.30;99.90
37289;DHT22;23174;49.462;11.000;2024-03-23T00:58:20;13.30;99.90
37289;DHT22;23174;49.462;11.000;2024-03-23T01:00:20;13.40;99.90
37289;DHT22;23174;49.462;11.000;2024-03-23T01:02:21;13.30;99.90
37289;DHT22;23174;49.462;11.000;2024-03-23T01:04:21;13.30;99.90
37289;DHT22;23174;49.462;11.000;2024-03-23T01:06:22;13.30;99.90
37289;DHT22;23174;49.462;11.000;2024-03-23T01:08:22;13.30;99.90
37289;DHT22;23174;49.462;11.000;2024-03-23T01:10:23;13.20;99.90
37289;DHT22;23174;49.462;11.000;2024-03-23T01:12:23;13.20;99.90
37289;DHT22;23174;49.462;11.000;2024-03-23T01:14:23;13.20;99.90
37289;DHT22;23174;49.462;11.000;2024-03-23T01:16:24;13.30;99.90
37289;DHT22;23174;49.462;11.000;2024-03-23T01:18:24;13.30;99.90
37289;DHT22;23174;49.462;11.000;2024-03-23T01:20:26;13.20;99.90
37289;DHT22;23174;49.462;11.000;2024-03-23T01:22:27;13.10;99.90
37289;DHT22;23174;49.462;11.000;2024-03-23T01:24:28;13.10;99.90
37289;DHT22;23174;49.462;11.000;2024-03-23T01:26:28;13.10;99.90
37289;DHT22;23174;49.462;11.000;2024-03-23T01:28:29;12.90;99.90
37289;DHT22;23174;49.462;11.000;2024-03-23T01:30:29;12.90;99.90
37289;DHT22;23174;49.462;11.000;2024-03-23T01:32:30;12.90;99.90
37289;DHT22;23174;49.462;11.000;2024-03-23T01:34:31;12.80;99.90
37289;DHT22;23174;49.462;11.000;2024-03-23T01:36:31;12.90;99.90
37289;DHT22;23174;49.462;11.000;2024-03-23T01:38:32;12.90;99.90
37289;DHT22;23174;49.462;11.000;2024-03-23T01:40:32;13.00;99.90
37289;DHT22;23174;49.462;11.000;2024-03-23T01:42:33;13.00;99.90
37289;DHT22;23174;49.462;11.000;2024-03-23T01:44:33;13.00;99.90
37289;DHT22;23174;49.462;11.000;2024-03-23T01:46:35;13.00;99.90
37289;DHT22;23174;49.462;11.000;2024-03-23T01:48:36;12.80;99.90
37289;DHT22;23174;49.462;11.000;2024-03-23T01:50:37;12.80;99.90
37289;DHT22;23174;49.462;11.000;2024-03-23T01:52:37;12.80;99.90
37289;DHT22;23174;49.462;11.000;2024-03-23T01:54:38;12.80;99.90
37289;DHT22;23174;49.462;11.000;2024-03-23T01:56:39;12.80;99.90
37289;DHT22;23174;49.462;11.000;2024-03-23T01:58:39;12.80;99.90
37289;DHT22;23174;49.462;11.000;2024-03-23T02:00:40;12.80;99.90
37289;DHT22;23174;49.462;11.000;2024-03-23T02:02:47;12.80;99.90
37289;DHT22;23174;49.462;11.000;2024-03-23T02:04:47;12.80;99.90
37289;DHT22;23174;49.462;11.000;2024-03-23T02:06:48;12.80;99.90
37289;DHT22;23174;49.462;11.000;2024-03-23T02:08:49;12.80;99.90
37289;DHT22;23174;49.462;11.000;2024-03-23T02:10:50;12.80;99.90
37289;DHT22;23174;49.462;11.000;2024-03-23T02:12:50;12.80;99.90
37289;DHT22;23174;49.462;11.000;2024-03-23T02:14:51;13.00;99.90
37289;DHT22;23174;49.462;11.000;2024-03-23T02:16:51;13.00;99.90
37289;DHT22;23174;49.462;11.000;2024-03-23T02:18:52;13.00;99.90
37289;DHT22;23174;49.462;11.000;2024-03-23T02:20:52;13.00;99.90
37289;DHT22;23174;49.462;11.000;2024-03-23T02:22:53;13.00;99.90
37289;DHT22;23174;49.462;11.000;2024-03-23T02:24:54;13.00;99.90
37289;DHT22;23174;49.462;11.000;2024-03-23T02:26:54;13.00;99.90
37289;DHT22;23174;49.462;11.000;2024-03-23T02:28:55;12.90;99.90
37289;DHT22;23174;49.462;11.000;2024-03-23T02:30:55;13.00;99.90
37289;DHT22;23174;49.462;11.000;2024-03-23T02:32:56;13.00;99.90
37289;DHT22;23174;49.462;11.000;2024-03-23T02:34:56;13.10;99.90
37289;DHT22;23174;49.462;11.000;2024-03-23T02:36:57;13.10;99.90
37289;DHT22;23174;49.462;11.000;2024-03-23T02:38:57;13.20;99.90
37289;DHT22;23174;49.462;11.000;2024-03-23T02:41:05;13.20;99.90
37289;DHT22;23174;49.462;11.000;2024-03-23T02:43:06;13.20;99.90
37289;DHT22;23174;49.462;11.000;2024-03-23T02:45:06;13.30;99.90
37289;DHT22;23174;49.462;11.000;2024-03-23T02:47:07;13.30;99.90
37289;DHT22;23174;49.462;11.000;2024-03-23T02:49:08;13.30;99.90
37289;DHT22;23174;49.462;11.000;2024-03-23T02:51:08;13.30;99.90
37289;DHT22;23174;49.462;11.000;2024-03-23T02:53:09;13.30;99.90
37289;DHT22;23174;49.462;11.000;2024-03-23T02:55:09;13.30;99.90
37289;DHT22;23174;49.462;11.000;2024-03-23T02:57:10;13.30;99.90
37289;DHT22;23174;49.462;11.000;2024-03-23T02:59:10;13.30;99.90
37289;DHT22;23174;49.462;11.000;2024-03-23T03:01:11;13.30;99.90
37289;DHT22;23174;49.462;11.000;2024-03-23T03:03:11;13.30;99.90
37289;DHT22;23174;49.462;11.000;2024-03-23T03:05:12;13.20;99.90
37289;DHT22;23174;49.462;11.000;2024-03-23T03:07:14;13.20;99.90
37289;DHT22;23174;49.462;11.000;2024-03-23T03:09:15;13.20;99.90
37289;DHT22;23174;49.462;11.000;2024-03-23T03:11:15;13.30;99.90
37289;DHT22;23174;49.462;11.000;2024-03-23T03:13:16;13.20;99.90
37289;DHT22;23174;49.462;11.000;2024-03-23T03:15:16;13.20;99.90
37289;DHT22;23174;49.462;11.000;2024-03-23T03:17:17;13.20;99.90
37289;DHT22;23174;49.462;11.000;2024-03-23T03:19:18;13.20;99.90
37289;DHT22;23174;49.462;11.000;2024-03-23T03:21:18;13.30;99.90
37289;DHT22;23174;49.462;11.000;2024-03-23T03:23:19;13.30;99.90
37289;DHT22;23174;49.462;11.000;2024-03-23T03:25:20;13.30;99.90
37289;DHT22;23174;49.462;11.000;2024-03-23T03:27:20;13.30;99.90
37289;DHT22;23174;49.462;11.000;2024-03-23T03:29:21;13.30;99.90
37289;DHT22;23174;49.462;11.000;2024-03-23T03:31:22;13.20;99.90
37289;DHT22;23174;49.462;11.000;2024-03-23T03:33:22;13.10;99.90
37289;DHT22;23174;49.462;11.000;2024-03-23T03:35:23;13.20;99.90
37289;DHT22;23174;49.462;11.000;2024-03-23T03:37:23;13.10;99.90
37289;DHT22;23174;49.462;11.000;2024-03-23T03:39:24;13.20;99.90
37289;DHT22;23174;49.462;11.000;2024-03-23T03:41:25;13.10;99.90
37289;DHT22;23174;49.462;11.000;2024-03-23T03:43:25;13.10;99.90
37289;DHT22;23174;49.462;11.000;2024-03-23T03:45:26;13.10;99.90
37289;DHT22;23174;49.462;11.000;2024-03-23T03:47:27;13.10;99.90
37289;DHT22;23174;49.462;11.000;2024-03-23T03:49:27;13.20;99.90
37289;DHT22;23174;49.462;11.000;2024-03-23T03:51:28;13.30;99.90
37289;DHT22;23174;49.462;11.000;2024-03-23T03:53:28;13.20;99.90
37289;DHT22;23174;49.462;11.000;2024-03-23T03:55:29;13.20;99.90
37289;DHT22;23174;49.462;11.000;2024-03-23T03:57:29;13.20;99.90
37289;DHT22;23174;49.462;11.000;2024-03-23T03:59:30;13.20;99.90
37289;DHT22;23174;49.462;11.000;2024-03-23T04:01:30;13.20;99.90
37289;DHT22;23174;49.462;11.000;2024-03-23T04:03:31;13.10;99.90
37289;DHT22;23174;49.462;11.000;2024-03-23T04:05:31;13.10;99.90
37289;DHT22;23174;49.462;11.000;2024-03-23T04:07:32;13.10;99.90
37289;DHT22;23174;49.462;11.000;2024-03-23T04:09:32;13.10;99.90
37289;DHT22;23174;49.462;11.000;2024-03-23T04:11:32;13.20;99.90
37289;DHT22;23174;49.462;11.000;2024-03-23T04:13:33;13.30;99.90
37289;DHT22;23174;49.462;11.000;2024-03-23T04:15:34;13.30;99.90
37289;DHT22;23174;49.462;11.000;2024-03-23T04:17:34;13.30;99.90
37289;DHT22;23174;49.462;11.000;2024-03-23T04:19:35;13.20;99.90
37289;DHT22;23174;49.462;11.000;2024-03-23T04:21:36;13.30;99.90
37289;DHT22;23174;49.462;11.000;2024-03-23T04:23:37;13.40;99.90
37289;DHT22;23174;49.462;11.000;2024-03-23T04:25:38;13.40;99.90
37289;DHT22;23174;49.462;11.000;2024-03-23T04:27:38;13.40;99.90
37289;DHT22;23174;49.462;11.000;2024-03-23T04:29:39;13.50;99.90
37289;DHT22;23174;49.462;11.000;2024-03-23T04:31:39;13.40;99.90
37289;DHT22;23174;49.462;11.000;2024-03-23T04:33:40;13.40;99.90
37289;DHT22;23174;49.462;11.000;2024-03-23T04:35:40;13.40;99.90
37289;DHT22;23174;49.462;11.000;2024-03-23T04:37:41;13.30;99.90
37289;DHT22;23174;49.462;11.000;2024-03-23T04:39:41;13.30;99.90
37289;DHT22;23174;49.462;11.000;2024-03-23T04:41:41;13.30;99.90
37289;DHT22;23174;49.462;11.000;2024-03-23T04:43:42;13.30;99.90
37289;DHT22;23174;49.462;11.000;2024-03-23T04:45:42;13.20;99.90
37289;DHT22;23174;49.462;11.000;2024-03-23T04:47:43;13.20;99.90
37289;DHT22;23174;49.462;11.000;2024-03-23T04:49:44;13.20;99.90
37289;DHT22;23174;49.462;11.000;2024-03-23T04:51:44;13.20;99.90
37289;DHT22;23174;49.462;11.000;2024-03-23T04:53:46;13.20;99.90
37289;DHT22;23174;49.462;11.000;2024-03-23T04:55:47;13.20;99.90
37289;DHT22;23174;49.462;11.000;2024-03-23T04:57:47;13.20;99.90
37289;DHT22;23174;49.462;11.000;2024-03-23T04:59:48;13.20;99.90
37289;DHT22;23174;49.462;11.000;2024-03-23T05:01:48;13.20;99.90
37289;DHT22;23174;49.462;11.000;2024-03-23T05:03:49;13.10;99.90
37289;DHT22;23174;49.462;11.000;2024-03-23T05:05:49;13.10;99.90
37289;DHT22;23174;49.462;11.000;2024-03-23T05:07:50;13.10;99.90
37289;DHT22;23174;49.462;11.000;2024-03-23T05:09:50;13.20;99.90
37289;DHT22;23174;49.462;11.000;2024-03-23T05:11:51;13.20;99.90
37289;DHT22;23174;49.462;11.000;2024-03-23T05:13:51;13.30;99.90
37289;DHT22;23174;49.462;11.000;2024-03-23T05:15:56;13.30;99.90
37289;DHT22;23174;49.462;11.000;2024-03-23T05:17:56;13.40;99.90
37289;DHT22;23174;49.462;11.000;2024-03-23T05:19:57;13.40;99.90
37289;DHT22;23174;49.462;11.000;2024-03-23T05:21:57;13.50;99.90
37289;DHT22;23174;49.462;11.000;2024-03-23T05:23:58;13.50;99.90
37289;DHT22;23174;49.462;11.000;2024-03-23T05:25:58;13.60;99.90
37289;DHT22;23174;49.462;11.000;2024-03-23T05:27:59;13.70;99.90
37289;DHT22;23174;49.462;11.000;2024-03-23T05:29:59;13.70;99.90
37289;DHT22;23174;49.462;11.000;2024-03-23T05:31:59;13.80;99.90
37289;DHT22;23174;49.462;11.000;2024-03-23T05:34:00;13.80;99.90
37289;DHT22;23174;49.462;11.000;2024-03-23T05:36:01;13.80;99.90
37289;DHT22;23174;49.462;11.000;2024-03-23T05:38:02;13.80;99.90
37289;DHT22;23174;49.462;11.000;2024-03-23T05:40:02;13.80;99.90
37289;DHT22;23174;49.462;11.000;2024-03-23T05:42:04;13.90;99.90
37289;DHT22;23174;49.462;11.000;2024-03-23T05:44:04;13.90;99.90
37289;DHT22;23174;49.462;11.000;2024-03-23T05:46:05;13.90;99.90
37289;DHT22;23174;49.462;11.000;2024-03-23T05:48:06;13.90;99.90
37289;DHT22;23174;49.462;11.000;2024-03-23T05:50:08;13.80;99.90
37289;DHT22;23174;49.462;11.000;2024-03-23T05:52:10;13.90;99.90
37289;DHT22;23174;49.462;11.000;2024-03-23T05:54:10;13.90;99.90
37289;DHT22;23174;49.462;11.000;2024-03-23T05:56:11;13.90;99.90
37289;DHT22;23174;49.462;11.000;2024-03-23T05:58:11;13.90;99.90
37289;DHT22;23174;49.462;11.000;2024-03-23T06:00:12;13.90;99.90
37289;DHT22;23174;49.462;11.000;2024-03-23T06:02:18;13.90;99.90
37289;DHT22;23174;49.462;11.000;2024-03-23T06:04:19;14.00;99.90
37289;DHT22;23174;49.462;11.000;2024-03-23T06:06:19;14.00;99.90
37289;DHT22;23174;49.462;11.000;2024-03-23T06:08:20;14.00;99.90
37289;DHT22;23174;49.462;11.000;2024-03-23T06:10:20;13.90;99.90
37289;DHT22;23174;49.462;11.000;2024-03-23T06:12:21;13.90;99.90
37289;DHT22;23174;49.462;11.000;2024-03-23T06:14:21;13.80;99.90
37289;DHT22;23174;49.462;11.000;2024-03-23T06:16:22;13.80;99.90
37289;DHT22;23174;49.462;11.000;2024-03-23T06:18:25;13.80;99.90
37289;DHT22;23174;49.462;11.000;2024-03-23T06:20:26;13.70;99.90
37289;DHT22;23174;49.462;11.000;2024-03-23T06:22:27;13.70;99.90
37289;DHT22;23174;49.462;11.000;2024-03-23T06:24:27;13.70;99.90
37289;DHT22;23174;49.462;11.000;2024-03-23T06:26:27;13.80;99.90
37289;DHT22;23174;49.462;11.000;2024-03-23T06:28:28;13.70;99.90
37289;DHT22;23174;49.462;11.000;2024-03-23T06:30:28;13.60;99.90
37289;DHT22;23174;49.462;11.000;2024-03-23T06:32:29;13.50;99.90
37289;DHT22;23174;49.462;11.000;2024-03-23T06:34:30;13.60;99.90
37289;DHT22;23174;49.462;11.000;2024-03-23T06:36:30;13.60;99.90
37289;DHT22;23174;49.462;11.000;2024-03-23T06:38:31;13.60;99.90
37289;DHT22;23174;49.462;11.000;2024-03-23T06:40:32;13.60;99.90
37289;DHT22;23174;49.462;11.000;2024-03-23T06:42:32;13.60;99.90
37289;DHT22;23174;49.462;11.000;2024-03-23T06:44:33;13.60;99.90
37289;DHT22;23174;49.462;11.000;2024-03-23T06:46:34;13.60;99.90
37289;DHT22;23174;49.462;11.000;2024-03-23T06:48:34;13.60;99.90
37289;DHT22;23174;49.462;11.000;2024-03-23T06:50:35;13.60;99.90
37289;DHT22;23174;49.462;11.000;2024-03-23T06:52:35;13.60;99.90
37289;DHT22;23174;49.462;11.000;2024-03-23T06:54:36;13.60;99.90
37289;DHT22;23174;49.462;11.000;2024-03-23T06:56:36;13.60;99.90
37289;DHT22;23174;49.462;11.000;2024-03-23T06:58:37;13.60;99.90
37289;DHT22;23174;49.462;11.000;2024-03-23T07:00:37;13.60;99.90
37289;DHT22;23174;49.462;11.000;2024-03-23T07:02:38;13.70;99.90
37289;DHT22;23174;49.462;11.000;2024-03-23T07:04:38;13.70;99.90
37289;DHT22;23174;49.462;11.000;2024-03-23T07:06:45;13.70;99.90
37289;DHT22;23174;49.462;11.000;2024-03-23T07:08:46;13.60;99.90
37289;DHT22;23174;49.462;11.000;2024-03-23T07:10:46;13.70;99.90
37289;DHT22;23174;49.462;11.000;2024-03-23T07:12:47;13.70;99.90
37289;DHT22;23174;49.462;11.000;2024-03-23T07:14:47;13.80;99.90
37289;DHT22;23174;49.462;11.000;2024-03-23T07:16:48;13.70;99.90
37289;DHT22;23174;49.462;11.000;2024-03-23T07:18:50;13.80;99.90
37289;DHT22;23174;49.462;11.000;2024-03-23T07:20:54;13.90;99.90
37289;DHT22;23174;49.462;11.000;2024-03-23T07:22:56;13.90;99.90
37289;DHT22;23174;49.462;11.000;2024-03-23T07:25:00;13.90;99.90
37289;DHT22;23174;49.462;11.000;2024-03-23T07:27:01;13.80;99.90
37289;DHT22;23174;49.462;11.000;2024-03-23T07:29:04;13.70;99.90
37289;DHT22;23174;49.462;11.000;2024-03-23T07:31:06;13.70;99.90
37289;DHT22;23174;49.462;11.000;2024-03-23T07:33:07;13.80;99.90
37289;DHT22;23174;49.462;11.000;2024-03-23T07:35:08;13.80;99.90
37289;DHT22;23174;49.462;11.000;2024-03-23T07:37:08;13.70;99.90
37289;DHT22;23174;49.462;11.000;2024-03-23T07:39:09;13.70;99.90
37289;DHT22;23174;49.462;11.000;2024-03-23T07:41:19;13.70;99.90
37289;DHT22;23174;49.462;11.000;2024-03-23T07:43:19;13.60;99.90
37289;DHT22;23174;49.462;11.000;2024-03-23T07:45:20;13.70;99.90
37289;DHT22;23174;49.462;11.000;2024-03-23T07:47:20;13.70;99.90
37289;DHT22;23174;49.462;11.000;2024-03-23T07:49:21;13.60;99.90
37289;DHT22;23174;49.462;11.000;2024-03-23T07:51:22;13.70;99.90
37289;DHT22;23174;49.462;11.000;2024-03-23T07:53:23;13.70;99.90
37289;DHT22;23174;49.462;11.000;2024-03-23T07:55:23;13.60;99.90
37289;DHT22;23174;49.462;11.000;2024-03-23T07:57:24;13.70;99.90
37289;DHT22;23174;49.462;11.000;2024-03-23T07:59:24;13.60;99.90
37289;DHT22;23174;49.462;11.000;2024-03-23T08:01:25;13.70;99.90
37289;DHT22;23174;49.462;11.000;2024-03-23T08:03:26;13.70;99.90
37289;DHT22;23174;49.462;11.000;2024-03-23T08:05:26;13.70;99.90
37289;DHT22;23174;49.462;11.000;2024-03-23T08:07:27;13.80;99.90
37289;DHT22;23174;49.462;11.000;2024-03-23T08:09:27;13.80;99.90
37289;DHT22;23174;49.462;11.000;2024-03-23T08:11:31;13.90;99.90
37289;DHT22;23174;49.462;11.000;2024-03-23T08:13:33;14.00;99.90
37289;DHT22;23174;49.462;11.000;2024-03-23T08:15:33;14.00;99.90
37289;DHT22;23174;49.462;11.000;2024-03-23T08:17:34;14.00;99.90
37289;DHT22;23174;49.462;11.000;2024-03-23T08:19:34;14.10;99.90
37289;DHT22;23174;49.462;11.000;2024-03-23T08:21:34;14.10;99.90
37289;DHT22;23174;49.462;11.000;2024-03-23T08:23:35;13.90;99.90
37289;DHT22;23174;49.462;11.000;2024-03-23T08:25:39;13.80;99.90
37289;DHT22;23174;49.462;11.000;2024-03-23T08:27:39;13.70;99.90
37289;DHT22;23174;49.462;11.000;2024-03-23T08:29:40;13.30;99.90
37289;DHT22;23174;49.462;11.000;2024-03-23T08:31:40;13.10;99.90
37289;DHT22;23174;49.462;11.000;2024-03-23T08:33:41;13.00;99.90
37289;DHT22;23174;49.462;11.000;2024-03-23T08:35:55;12.90;99.90
37289;DHT22;23174;49.462;11.000;2024-03-23T08:37:56;13.00;99.90
37289;DHT22;23174;49.462;11.000;2024-03-23T08:39:57;12.90;99.90
37289;DHT22;23174;49.462;11.000;2024-03-23T08:41:57;12.90;99.90
37289;DHT22;23174;49.462;11.000;2024-03-23T08:43:57;12.90;99.90
37289;DHT22;23174;49.462;11.000;2024-03-23T08:46:08;12.90;99.90
37289;DHT22;23174;49.462;11.000;2024-03-23T08:48:08;12.90;99.90
37289;DHT22;23174;49.462;11.000;2024-03-23T08:50:09;12.90;99.90
37289;DHT22;23174;49.462;11.000;2024-03-23T08:52:10;12.80;99.90
37289;DHT22;23174;49.462;11.000;2024-03-23T08:54:10;12.90;99.90
37289;DHT22;23174;49.462;11.000;2024-03-23T08:56:11;12.90;99.90
37289;DHT22;23174;49.462;11.000;2024-03-23T08:58:11;12.90;99.90
37289;DHT22;23174;49.462;11.000;2024-03-23T09:00:14;12.90;99.90
37289;DHT22;23174;49.462;11.000;2024-03-23T09:02:15;12.90;99.90
37289;DHT22;23174;49.462;11.000;2024-03-23T09:04:15;12.90;99.90
37289;DHT22;23174;49.462;11.000;2024-03-23T09:06:16;12.80;99.90
37289;DHT22;23174;49.462;11.000;2024-03-23T09:08:17;12.80;99.90
37289;DHT22;23174;49.462;11.000;2024-03-23T09:10:18;12.80;99.90
37289;DHT22;23174;49.462;11.000;2024-03-23T09:12:18;12.90;99.90
37289;DHT22;23174;49.462;11.000;2024-03-23T09:14:19;12.80;99.90
37289;DHT22;23174;49.462;11.000;2024-03-23T09:16:19;12.80;99.90
37289;DHT22;23174;49.462;11.000;2024-03-23T09:18:20;13.00;99.90
37289;DHT22;23174;49.462;11.000;2024-03-23T09:20:21;13.00;99.90
37289;DHT22;23174;49.462;11.000;2024-03-23T09:22:21;13.00;99.90
37289;DHT22;23174;49.462;11.000;2024-03-23T09:24:22;13.00;99.90
37289;DHT22;23174;49.462;11.000;2024-03-23T09:26:22;13.00;99.90
37289;DHT22;23174;49.462;11.000;2024-03-23T09:28:23;13.00;99.90
37289;DHT22;23174;49.462;11.000;2024-03-23T09:30:23;12.90;99.90
37289;DHT22;23174;49.462;11.000;2024-03-23T09:32:23;12.90;99.90
37289;DHT22;23174;49.462;11.000;2024-03-23T09:34:24;13.00;99.90
37289;DHT22;23174;49.462;11.000;2024-03-23T09:36:24;12.90;99.90
37289;DHT22;23174;49.462;11.000;2024-03-23T09:38:25;12.80;99.90
37289;DHT22;23174;49.462;11.000;2024-03-23T09:40:25;12.70;99.90
37289;DHT22;23174;49.462;11.000;2024-03-23T09:42:27;12.60;99.90
37289;DHT22;23174;49.462;11.000;2024-03-23T09:44:27;12.60;99.90
37289;DHT22;23174;49.462;11.000;2024-03-23T09:46:30;11.90;99.90
37289;DHT22;23174;49.462;11.000;2024-03-23T09:48:34;11.60;99.90
37289;DHT22;23174;49.462;11.000;2024-03-23T09:50:39;11.40;99.90
37289;DHT22;23174;49.462;11.000;2024-03-23T09:52:40;11.50;99.90
37289;DHT22;23174;49.462;11.000;2024-03-23T09:54:42;11.50;99.90
37289;DHT22;23174;49.462;11.000;2024-03-23T09:56:42;12.00;99.90
37289;DHT22;23174;49.462;11.000;2024-03-23T09:58:43;12.50;99.90
37289;DHT22;23174;49.462;11.000;2024-03-23T10:00:44;12.80;99.90
37289;DHT22;23174;49.462;11.000;2024-03-23T10:02:45;13.10;99.90
37289;DHT22;23174;49.462;11.000;2024-03-23T10:04:46;13.20;99.90
37289;DHT22;23174;49.462;11.000;2024-03-23T10:06:46;13.30;99.90
37289;DHT22;23174;49.462;11.000;2024-03-23T10:08:47;13.30;99.90
37289;DHT22;23174;49.462;11.000;2024-03-23T10:10:47;13.30;99.90
37289;DHT22;23174;49.462;11.000;2024-03-23T10:12:49;13.30;99.90
37289;DHT22;23174;49.462;11.000;2024-03-23T10:14:52;13.40;99.90
37289;DHT22;23174;49.462;11.000;2024-03-23T10:16:53;13.30;99.90
37289;DHT22;23174;49.462;11.000;2024-03-23T10:18:55;13.20;99.90
37289;DHT22;23174;49.462;11.000;2024-03-23T10:21:11;13.10;99.90
37289;DHT22;23174;49.462;11.000;2024-03-23T10:23:18;13.00;99.90
37289;DHT22;23174;49.462;11.000;2024-03-23T10:25:22;13.00;99.90
37289;DHT22;23174;49.462;11.000;2024-03-23T10:27:23;13.00;99.90
37289;DHT22;23174;49.462;11.000;2024-03-23T10:29:23;13.00;99.90
37289;DHT22;23174;49.462;11.000;2024-03-23T10:31:32;13.00;99.90
37289;DHT22;23174;49.462;11.000;2024-03-23T10:33:33;12.90;99.90
37289;DHT22;23174;49.462;11.000;2024-03-23T10:35:36;12.70;99.90
37289;DHT22;23174;49.462;11.000;2024-03-23T10:37:36;12.30;99.90
37289;DHT22;23174;49.462;11.000;2024-03-23T10:39:38;11.80;99.90
37289;DHT22;23174;49.462;11.000;2024-03-23T10:41:39;11.60;99.90
37289;DHT22;23174;49.462;11.000;2024-03-23T10:43:43;11.50;99.90
37289;DHT22;23174;49.462;11.000;2024-03-23T10:45:44;11.50;99.90
37289;DHT22;23174;49.462;11.000;2024-03-23T10:47:46;11.40;99.90
37289;DHT22;23174;49.462;11.000;2024-03-23T10:49:48;11.50;99.90
37289;DHT22;23174;49.462;11.000;2024-03-23T10:51:49;11.40;99.90
37289;DHT22;23174;49.462;11.000;2024-03-23T10:53:50;11.40;99.90
37289;DHT22;23174;49.462;11.000;2024-03-23T10:55:52;11.30;99.90
37289;DHT22;23174;49.462;11.000;2024-03-23T10:57:55;11.40;99.90
37289;DHT22;23174;49.462;11.000;2024-03-23T10:59:56;11.40;99.90
37289;DHT22;23174;49.462;11.000;2024-03-23T11:01:58;11.40;99.90
37289;DHT22;23174;49.462;11.000;2024-03-23T11:03:59;11.30;99.90
37289;DHT22;23174;49.462;11.000;2024-03-23T11:06:00;11.30;99.90
37289;DHT22;23174;49.462;11.000;2024-03-23T11:08:01;11.30;99.90
37289;DHT22;23174;49.462;11.000;2024-03-23T11:10:02;11.30;99.90
37289;DHT22;23174;49.462;11.000;2024-03-23T11:14:23;11.40;99.90
37289;DHT22;23174;49.462;11.000;2024-03-23T11:16:27;11.30;99.90
37289;DHT22;23174;49.462;11.000;2024-03-23T11:18:30;11.50;99.90
37289;DHT22;23174;49.462;11.000;2024-03-23T11:20:34;11.70;99.90
37289;DHT22;23174;49.462;11.000;2024-03-23T11:22:38;11.90;99.90
37289;DHT22;23174;49.462;11.000;2024-03-23T11:24:39;12.30;99.90
37289;DHT22;23174;49.462;11.000;2024-03-23T11:26:40;12.50;99.90
37289;DHT22;23174;49.462;11.000;2024-03-23T11:28:40;12.70;99.90
37289;DHT22;23174;49.462;11.000;2024-03-23T11:30:41;12.80;99.90
37289;DHT22;23174;49.462;11.000;2024-03-23T11:32:44;12.80;99.90
37289;DHT22;23174;49.462;11.000;2024-03-23T11:34:45;12.90;99.90
37289;DHT22;23174;49.462;11.000;2024-03-23T11:36:46;12.80;99.90
37289;DHT22;23174;49.462;11.000;2024-03-23T11:38:47;12.80;99.90
37289;DHT22;23174;49.462;11.000;2024-03-23T11:40:49;12.80;99.90
37289;DHT22;23174;49.462;11.000;2024-03-23T11:42:56;12.70;99.90
37289;DHT22;23174;49.462;11.000;2024-03-23T11:44:56;12.70;99.90
37289;DHT22;23174;49.462;11.000;2024-03-23T11:47:08;12.70;99.90
37289;DHT22;23174;49.462;11.000;2024-03-23T11:49:24;12.70;99.90
37289;DHT22;23174;49.462;11.000;2024-03-23T11:51:25;12.70;99.90
37289;DHT22;23174;49.462;11.000;2024-03-23T11:53:25;12.90;99.90
37289;DHT22;23174;49.462;11.000;2024-03-23T11:55:29;13.00;99.90
37289;DHT22;23174;49.462;11.000;2024-03-23T11:57:30;13.10;99.90
37289;DHT22;23174;49.462;11.000;2024-03-23T11:59:33;13.10;99.90
37289;DHT22;23174;49.462;11.000;2024-03-23T12:01:34;13.10;99.90
37289;DHT22;23174;49.462;11.000;2024-03-23T12:03:35;13.10;99.90
37289;DHT22;23174;49.462;11.000;2024-03-23T12:05:37;13.10;99.90
37289;DHT22;23174;49.462;11.000;2024-03-23T12:07:38;13.10;99.90
37289;DHT22;23174;49.462;11.000;2024-03-23T12:09:41;13.20;99.90
37289;DHT22;23174;49.462;11.000;2024-03-23T12:11:41;13.20;99.90
37289;DHT22;23174;49.462;11.000;2024-03-23T12:13:44;13.30;99.90
37289;DHT22;23174;49.462;11.000;2024-03-23T12:15:47;13.30;99.90
37289;DHT22;23174;49.462;11.000;2024-03-23T12:17:47;13.30;99.90
37289;DHT22;23174;49.462;11.000;2024-03-23T12:19:48;13.40;99.90
37289;DHT22;23174;49.462;11.000;2024-03-23T12:21:48;13.30;99.70
37289;DHT22;23174;49.462;11.000;2024-03-23T12:23:49;13.40;99.90
37289;DHT22;23174;49.462;11.000;2024-03-23T12:25:50;13.30;99.40
37289;DHT22;23174;49.462;11.000;2024-03-23T12:27:51;13.50;99.70
37289;DHT22;23174;49.462;11.000;2024-03-23T12:29:51;13.40;99.30
37289;DHT22;23174;49.462;11.000;2024-03-23T12:31:51;13.40;98.50
37289;DHT22;23174;49.462;11.000;2024-03-23T12:33:52;13.30;99.40
37289;DHT22;23174;49.462;11.000;2024-03-23T12:35:52;13.40;98.50
37289;DHT22;23174;49.462;11.000;2024-03-23T12:37:54;13.40;98.70
37289;DHT22;23174;49.462;11.000;2024-03-23T12:39:54;13.40;96.80
37289;DHT22;23174;49.462;11.000;2024-03-23T12:41:55;13.50;97.50
37289;DHT22;23174;49.462;11.000;2024-03-23T12:43:55;13.60;97.90
37289;DHT22;23174;49.462;11.000;2024-03-23T12:45:56;13.60;96.30
37289;DHT22;23174;49.462;11.000;2024-03-23T12:47:56;13.50;95.70
37289;DHT22;23174;49.462;11.000;2024-03-23T12:49:57;13.50;96.40
37289;DHT22;23174;49.462;11.000;2024-03-23T12:51:57;13.60;96.30
37289;DHT22;23174;49.462;11.000;2024-03-23T12:53:58;13.50;96.30
37289;DHT22;23174;49.462;11.000;2024-03-23T12:55:58;13.50;97.00
37289;DHT22;23174;49.462;11.000;2024-03-23T12:57:59;13.60;96.70
37289;DHT22;23174;49.462;11.000;2024-03-23T12:59:59;13.50;96.10
37289;DHT22;23174;49.462;11.000;2024-03-23T13:02:00;13.50;96.90
37289;DHT22;23174;49.462;11.000;2024-03-23T13:04:01;13.50;97.50
37289;DHT22;23174;49.462;11.000;2024-03-23T13:06:02;13.50;97.30
37289;DHT22;23174;49.462;11.000;2024-03-23T13:08:07;13.40;97.00
37289;DHT22;23174;49.462;11.000;2024-03-23T13:10:08;13.40;96.90
37289;DHT22;23174;49.462;11.000;2024-03-23T13:12:09;13.50;96.90
37289;DHT22;23174;49.462;11.000;2024-03-23T13:14:10;13.40;96.40
37289;DHT22;23174;49.462;11.000;2024-03-23T13:16:10;13.40;97.30
37289;DHT22;23174;49.462;11.000;2024-03-23T13:18:11;13.40;97.10
37289;DHT22;23174;49.462;11.000;2024-03-23T13:20:11;13.40;96.60
37289;DHT22;23174;49.462;11.000;2024-03-23T13:22:14;13.50;96.00
37289;DHT22;23174;49.462;11.000;2024-03-23T13:24:15;13.50;96.90
37289;DHT22;23174;49.462;11.000;2024-03-23T13:26:15;13.50;96.50
37289;DHT22;23174;49.462;11.000;2024-03-23T13:28:16;13.50;96.50